KEGE/EGE METAR and TAF weather

Enter ICAO airport designator
Station Type Date Time Source
KEGE METAR 2020/02/16 20:01 UTC NOAA

KEGE 162001Z 00000KT 6SM -SN SCT013 BKN023 OVC031 02/M01 A2997 RMK AO2 RAE1959SNB1959 PNO $


Station Type Date Time Source
KEGE Decoded METAR 2020/02/16 20:01 UTC NOAA

Eagle County Regional, CO, United States (KEGE) 39-39N 106-55W
Feb 16, 2020 - 03:01 PM EST / 2020.02.16 2001 UTC
Wind: Calm:0
Visibility: 6 mile(s):0
Sky conditions: overcast
Weather: light snow
Temperature: 35 F (2 C)
Dew Point: 30 F (-1 C)
Relative Humidity: 80%
Pressure (altimeter): 29.97 in. Hg (1014 hPa)
ob: KEGE 162001Z 00000KT 6SM -SN SCT013 BKN023 OVC031 02/M01 A2997 RMK AO2 RAE1959SNB1959 PNO
cycle: 20

Station Type Date Time Source
KEGE TAF 2020/02/16 19:22 UTC NOAA

TAF
AMD KEGE 161920Z 1619/1718 VRB03KT P6SM VCSH SCT020 OVC050
TEMPO 1619/1621 3SM -SNRA BR BKN020
FM162100 24008KT P6SM -SNRA SCT018 OVC035
TEMPO 1621/1623 3SM -SNRA BR BKN018
FM170200 23010KT 4SM -SHSNRA BR SCT015 OVC030
FM170400 23010KT 5SM -SHSN BR SCT015 OVC030
FM170700 24010KT P6SM -SHSN SCT015 OVC030
FM171200 24008KT P6SM BKN030

Example: see airport list